sensor_id;sensor_type;location;lat;lon;timestamp;P1;durP1;ratioP1;P2;durP2;ratioP2
11197;SDS011;5655;48.744;9.162;2022-11-14T00:00:25;15.97;;;11.13;;
11197;SDS011;5655;48.744;9.162;2022-11-14T00:02:52;18.30;;;11.67;;
11197;SDS011;5655;48.744;9.162;2022-11-14T00:05:18;22.00;;;11.73;;
11197;SDS011;5655;48.744;9.162;2022-11-14T00:07:44;19.42;;;11.35;;
11197;SDS011;5655;48.744;9.162;2022-11-14T00:10:11;19.83;;;11.20;;
11197;SDS011;5655;48.744;9.162;2022-11-14T00:12:37;19.63;;;11.32;;
11197;SDS011;5655;48.744;9.162;2022-11-14T00:15:02;17.97;;;12.00;;
11197;SDS011;5655;48.744;9.162;2022-11-14T00:17:28;21.30;;;13.10;;
11197;SDS011;5655;48.744;9.162;2022-11-14T00:19:53;17.53;;;11.30;;
11197;SDS011;5655;48.744;9.162;2022-11-14T00:22:19;19.77;;;12.37;;
11197;SDS011;5655;48.744;9.162;2022-11-14T00:24:44;18.67;;;11.60;;
11197;SDS011;5655;48.744;9.162;2022-11-14T00:27:09;16.80;;;11.10;;
11197;SDS011;5655;48.744;9.162;2022-11-14T00:29:36;16.57;;;11.03;;
11197;SDS011;5655;48.744;9.162;2022-11-14T00:32:01;20.03;;;12.73;;
11197;SDS011;5655;48.744;9.162;2022-11-14T00:34:27;17.73;;;11.57;;
11197;SDS011;5655;48.744;9.162;2022-11-14T00:36:52;20.30;;;12.57;;
11197;SDS011;5655;48.744;9.162;2022-11-14T00:39:17;18.53;;;10.97;;
11197;SDS011;5655;48.744;9.162;2022-11-14T00:41:43;20.60;;;11.83;;
11197;SDS011;5655;48.744;9.162;2022-11-14T00:44:08;17.60;;;11.33;;
11197;SDS011;5655;48.744;9.162;2022-11-14T00:46:35;18.13;;;11.40;;
11197;SDS011;5655;48.744;9.162;2022-11-14T00:49:00;19.17;;;10.87;;
11197;SDS011;5655;48.744;9.162;2022-11-14T00:51:26;20.40;;;11.97;;
11197;SDS011;5655;48.744;9.162;2022-11-14T00:53:51;18.33;;;11.03;;
11197;SDS011;5655;48.744;9.162;2022-11-14T00:56:17;18.43;;;12.10;;
11197;SDS011;5655;48.744;9.162;2022-11-14T00:58:42;16.13;;;10.97;;
11197;SDS011;5655;48.744;9.162;2022-11-14T01:01:08;17.87;;;11.27;;
11197;SDS011;5655;48.744;9.162;2022-11-14T01:03:33;16.70;;;10.93;;
11197;SDS011;5655;48.744;9.162;2022-11-14T01:06:03;19.43;;;11.47;;
11197;SDS011;5655;48.744;9.162;2022-11-14T01:08:32;17.23;;;10.90;;
11197;SDS011;5655;48.744;9.162;2022-11-14T01:10:58;16.93;;;10.73;;
11197;SDS011;5655;48.744;9.162;2022-11-14T01:13:24;22.70;;;12.40;;
11197;SDS011;5655;48.744;9.162;2022-11-14T01:15:50;17.47;;;11.47;;
11197;SDS011;5655;48.744;9.162;2022-11-14T01:18:19;18.40;;;11.53;;
11197;SDS011;5655;48.744;9.162;2022-11-14T01:20:46;17.33;;;10.93;;
11197;SDS011;5655;48.744;9.162;2022-11-14T01:23:13;16.27;;;11.10;;
11197;SDS011;5655;48.744;9.162;2022-11-14T01:25:40;17.80;;;11.47;;
11197;SDS011;5655;48.744;9.162;2022-11-14T01:28:07;17.73;;;11.67;;
11197;SDS011;5655;48.744;9.162;2022-11-14T01:30:34;19.03;;;11.40;;
11197;SDS011;5655;48.744;9.162;2022-11-14T01:33:00;18.93;;;11.90;;
11197;SDS011;5655;48.744;9.162;2022-11-14T01:35:25;16.97;;;10.50;;
11197;SDS011;5655;48.744;9.162;2022-11-14T01:37:51;18.53;;;11.23;;
11197;SDS011;5655;48.744;9.162;2022-11-14T01:40:16;20.17;;;12.07;;
11197;SDS011;5655;48.744;9.162;2022-11-14T01:42:41;21.23;;;12.43;;
11197;SDS011;5655;48.744;9.162;2022-11-14T01:48:16;23.80;;;12.93;;
11197;SDS011;5655;48.744;9.162;2022-11-14T01:50:45;23.23;;;12.47;;
11197;SDS011;5655;48.744;9.162;2022-11-14T01:53:14;25.23;;;14.10;;
11197;SDS011;5655;48.744;9.162;2022-11-14T01:55:39;22.63;;;13.53;;
11197;SDS011;5655;48.744;9.162;2022-11-14T01:58:05;26.77;;;13.43;;
11197;SDS011;5655;48.744;9.162;2022-11-14T02:00:30;27.63;;;14.33;;
11197;SDS011;5655;48.744;9.162;2022-11-14T02:02:56;33.93;;;15.60;;
11197;SDS011;5655;48.744;9.162;2022-11-14T02:05:22;23.43;;;13.67;;
11197;SDS011;5655;48.744;9.162;2022-11-14T02:07:48;24.77;;;14.07;;
11197;SDS011;5655;48.744;9.162;2022-11-14T02:10:15;28.77;;;15.50;;
11197;SDS011;5655;48.744;9.162;2022-11-14T02:12:42;30.73;;;14.60;;
11197;SDS011;5655;48.744;9.162;2022-11-14T02:15:08;38.40;;;16.10;;
11197;SDS011;5655;48.744;9.162;2022-11-14T02:17:34;35.43;;;14.57;;
11197;SDS011;5655;48.744;9.162;2022-11-14T02:22:34;49.00;;;15.90;;
11197;SDS011;5655;48.744;9.162;2022-11-14T02:24:59;43.10;;;15.63;;
11197;SDS011;5655;48.744;9.162;2022-11-14T02:27:25;43.60;;;15.80;;
11197;SDS011;5655;48.744;9.162;2022-11-14T02:29:50;42.83;;;16.23;;
11197;SDS011;5655;48.744;9.162;2022-11-14T02:32:16;42.07;;;14.67;;
11197;SDS011;5655;48.744;9.162;2022-11-14T02:34:41;41.83;;;13.07;;
11197;SDS011;5655;48.744;9.162;2022-11-14T02:37:06;59.60;;;15.13;;
11197;SDS011;5655;48.744;9.162;2022-11-14T02:39:31;39.80;;;13.43;;
11197;SDS011;5655;48.744;9.162;2022-11-14T02:41:57;51.17;;;14.43;;
11197;SDS011;5655;48.744;9.162;2022-11-14T02:44:22;29.53;;;13.10;;
11197;SDS011;5655;48.744;9.162;2022-11-14T02:46:48;50.90;;;14.07;;
11197;SDS011;5655;48.744;9.162;2022-11-14T02:49:13;38.53;;;12.90;;
11197;SDS011;5655;48.744;9.162;2022-11-14T02:51:38;22.90;;;12.80;;
11197;SDS011;5655;48.744;9.162;2022-11-14T02:54:05;54.20;;;16.80;;
11197;SDS011;5655;48.744;9.162;2022-11-14T02:56:31;43.30;;;14.17;;
11197;SDS011;5655;48.744;9.162;2022-11-14T02:58:56;53.23;;;15.07;;
11197;SDS011;5655;48.744;9.162;2022-11-14T03:01:21;52.87;;;14.60;;
11197;SDS011;5655;48.744;9.162;2022-11-14T03:03:47;75.27;;;16.73;;
11197;SDS011;5655;48.744;9.162;2022-11-14T03:06:12;96.00;;;18.87;;
11197;SDS011;5655;48.744;9.162;2022-11-14T03:08:37;74.27;;;18.83;;
11197;SDS011;5655;48.744;9.162;2022-11-14T03:11:06;47.80;;;15.70;;
11197;SDS011;5655;48.744;9.162;2022-11-14T03:13:33;67.70;;;16.70;;
11197;SDS011;5655;48.744;9.162;2022-11-14T03:16:08;35.73;;;15.53;;
11197;SDS011;5655;48.744;9.162;2022-11-14T03:18:35;68.20;;;16.60;;
11197;SDS011;5655;48.744;9.162;2022-11-14T03:21:04;71.80;;;16.17;;
11197;SDS011;5655;48.744;9.162;2022-11-14T03:23:33;52.50;;;14.97;;
11197;SDS011;5655;48.744;9.162;2022-11-14T03:25:59;85.33;;;17.37;;
11197;SDS011;5655;48.744;9.162;2022-11-14T03:28:26;81.13;;;15.60;;
11197;SDS011;5655;48.744;9.162;2022-11-14T03:30:51;61.07;;;14.33;;
11197;SDS011;5655;48.744;9.162;2022-11-14T03:33:17;59.47;;;16.03;;
11197;SDS011;5655;48.744;9.162;2022-11-14T03:35:42;35.17;;;14.00;;
11197;SDS011;5655;48.744;9.162;2022-11-14T03:38:08;176.97;;;21.97;;
11197;SDS011;5655;48.744;9.162;2022-11-14T03:40:33;93.83;;;17.67;;
11197;SDS011;5655;48.744;9.162;2022-11-14T03:42:58;96.63;;;16.07;;
11197;SDS011;5655;48.744;9.162;2022-11-14T03:45:24;109.77;;;16.53;;
11197;SDS011;5655;48.744;9.162;2022-11-14T03:47:49;121.67;;;17.70;;
11197;SDS011;5655;48.744;9.162;2022-11-14T03:50:14;89.10;;;16.83;;
11197;SDS011;5655;48.744;9.162;2022-11-14T03:52:40;26.37;;;13.40;;
11197;SDS011;5655;48.744;9.162;2022-11-14T03:55:05;43.07;;;15.13;;
11197;SDS011;5655;48.744;9.162;2022-11-14T03:57:31;36.00;;;15.43;;
11197;SDS011;5655;48.744;9.162;2022-11-14T03:59:56;61.00;;;15.23;;
11197;SDS011;5655;48.744;9.162;2022-11-14T04:02:21;49.27;;;15.47;;
11197;SDS011;5655;48.744;9.162;2022-11-14T04:04:47;32.37;;;15.23;;
11197;SDS011;5655;48.744;9.162;2022-11-14T04:07:12;33.33;;;16.87;;
11197;SDS011;5655;48.744;9.162;2022-11-14T04:09:37;35.60;;;16.23;;
11197;SDS011;5655;48.744;9.162;2022-11-14T04:12:03;30.77;;;15.73;;
11197;SDS011;5655;48.744;9.162;2022-11-14T04:14:28;26.67;;;15.40;;
11197;SDS011;5655;48.744;9.162;2022-11-14T04:16:53;26.30;;;13.87;;
11197;SDS011;5655;48.744;9.162;2022-11-14T04:19:18;27.90;;;15.37;;
11197;SDS011;5655;48.744;9.162;2022-11-14T04:21:44;25.40;;;14.03;;
11197;SDS011;5655;48.744;9.162;2022-11-14T04:24:09;23.60;;;13.43;;
11197;SDS011;5655;48.744;9.162;2022-11-14T04:26:34;26.13;;;14.47;;
11197;SDS011;5655;48.744;9.162;2022-11-14T04:29:00;27.20;;;14.13;;
11197;SDS011;5655;48.744;9.162;2022-11-14T04:31:25;23.87;;;14.33;;
11197;SDS011;5655;48.744;9.162;2022-11-14T04:33:50;25.60;;;14.07;;
11197;SDS011;5655;48.744;9.162;2022-11-14T04:36:16;21.20;;;12.83;;
11197;SDS011;5655;48.744;9.162;2022-11-14T04:38:41;25.60;;;14.63;;
11197;SDS011;5655;48.744;9.162;2022-11-14T04:41:06;21.70;;;12.40;;
11197;SDS011;5655;48.744;9.162;2022-11-14T04:43:32;24.03;;;13.33;;
11197;SDS011;5655;48.744;9.162;2022-11-14T04:45:57;24.40;;;14.30;;
11197;SDS011;5655;48.744;9.162;2022-11-14T04:48:22;21.87;;;13.23;;
11197;SDS011;5655;48.744;9.162;2022-11-14T04:50:47;23.23;;;13.87;;
11197;SDS011;5655;48.744;9.162;2022-11-14T04:53:13;20.90;;;13.13;;
11197;SDS011;5655;48.744;9.162;2022-11-14T04:55:38;21.70;;;13.03;;
11197;SDS011;5655;48.744;9.162;2022-11-14T04:58:03;20.83;;;14.00;;
11197;SDS011;5655;48.744;9.162;2022-11-14T05:00:29;20.50;;;13.43;;
11197;SDS011;5655;48.744;9.162;2022-11-14T05:02:54;20.87;;;12.63;;
11197;SDS011;5655;48.744;9.162;2022-11-14T05:05:22;18.40;;;11.77;;
11197;SDS011;5655;48.744;9.162;2022-11-14T05:07:47;18.93;;;11.30;;
11197;SDS011;5655;48.744;9.162;2022-11-14T05:10:12;19.27;;;11.60;;
11197;SDS011;5655;48.744;9.162;2022-11-14T05:12:38;20.10;;;12.33;;
11197;SDS011;5655;48.744;9.162;2022-11-14T05:15:03;22.90;;;13.27;;
11197;SDS011;5655;48.744;9.162;2022-11-14T05:17:29;21.30;;;12.23;;
11197;SDS011;5655;48.744;9.162;2022-11-14T05:19:54;20.93;;;12.70;;
11197;SDS011;5655;48.744;9.162;2022-11-14T05:22:19;19.57;;;12.63;;
11197;SDS011;5655;48.744;9.162;2022-11-14T05:24:44;19.63;;;11.97;;
11197;SDS011;5655;48.744;9.162;2022-11-14T05:27:10;19.67;;;12.60;;
11197;SDS011;5655;48.744;9.162;2022-11-14T05:29:35;18.43;;;11.13;;
11197;SDS011;5655;48.744;9.162;2022-11-14T05:32:00;23.23;;;13.33;;
11197;SDS011;5655;48.744;9.162;2022-11-14T05:34:26;20.03;;;12.17;;
11197;SDS011;5655;48.744;9.162;2022-11-14T05:36:51;23.10;;;12.50;;
11197;SDS011;5655;48.744;9.162;2022-11-14T05:39:16;17.30;;;11.57;;
11197;SDS011;5655;48.744;9.162;2022-11-14T05:41:42;16.90;;;11.13;;
11197;SDS011;5655;48.744;9.162;2022-11-14T05:44:07;18.37;;;11.40;;
11197;SDS011;5655;48.744;9.162;2022-11-14T05:46:33;19.43;;;11.13;;
11197;SDS011;5655;48.744;9.162;2022-11-14T05:48:58;19.13;;;12.83;;
11197;SDS011;5655;48.744;9.162;2022-11-14T05:51:23;16.00;;;11.00;;
11197;SDS011;5655;48.744;9.162;2022-11-14T05:53:48;16.50;;;11.10;;
11197;SDS011;5655;48.744;9.162;2022-11-14T05:56:14;21.83;;;11.67;;
11197;SDS011;5655;48.744;9.162;2022-11-14T05:58:39;19.00;;;11.53;;
11197;SDS011;5655;48.744;9.162;2022-11-14T06:03:32;14.53;;;10.33;;
11197;SDS011;5655;48.744;9.162;2022-11-14T06:06:00;17.90;;;11.47;;
11197;SDS011;5655;48.744;9.162;2022-11-14T06:08:27;17.60;;;12.13;;
11197;SDS011;5655;48.744;9.162;2022-11-14T06:10:53;17.90;;;10.57;;
11197;SDS011;5655;48.744;9.162;2022-11-14T06:13:19;17.83;;;10.53;;
11197;SDS011;5655;48.744;9.162;2022-11-14T06:15:44;20.27;;;10.83;;
11197;SDS011;5655;48.744;9.162;2022-11-14T06:18:09;18.00;;;10.27;;
11197;SDS011;5655;48.744;9.162;2022-11-14T06:20:35;16.03;;;10.67;;
11197;SDS011;5655;48.744;9.162;2022-11-14T06:23:00;17.90;;;9.87;;
11197;SDS011;5655;48.744;9.162;2022-11-14T06:25:25;16.17;;;10.10;;
11197;SDS011;5655;48.744;9.162;2022-11-14T06:27:51;15.40;;;10.17;;
11197;SDS011;5655;48.744;9.162;2022-11-14T06:30:16;16.77;;;10.37;;
11197;SDS011;5655;48.744;9.162;2022-11-14T06:32:42;14.50;;;9.40;;
11197;SDS011;5655;48.744;9.162;2022-11-14T06:35:07;16.93;;;10.43;;
11197;SDS011;5655;48.744;9.162;2022-11-14T06:37:34;18.37;;;10.80;;
11197;SDS011;5655;48.744;9.162;2022-11-14T06:40:00;15.13;;;9.87;;
11197;SDS011;5655;48.744;9.162;2022-11-14T06:42:26;16.27;;;9.80;;
11197;SDS011;5655;48.744;9.162;2022-11-14T06:44:51;13.83;;;9.33;;
11197;SDS011;5655;48.744;9.162;2022-11-14T06:47:16;14.23;;;9.53;;
11197;SDS011;5655;48.744;9.162;2022-11-14T06:49:42;15.67;;;9.80;;
11197;SDS011;5655;48.744;9.162;2022-11-14T06:52:07;14.17;;;9.50;;
11197;SDS011;5655;48.744;9.162;2022-11-14T06:54:32;20.47;;;9.93;;
11197;SDS011;5655;48.744;9.162;2022-11-14T06:56:58;17.27;;;9.23;;
11197;SDS011;5655;48.744;9.162;2022-11-14T06:59:23;12.60;;;8.73;;
11197;SDS011;5655;48.744;9.162;2022-11-14T07:01:48;14.57;;;9.27;;
11197;SDS011;5655;48.744;9.162;2022-11-14T07:04:13;13.83;;;9.40;;
11197;SDS011;5655;48.744;9.162;2022-11-14T07:06:39;14.47;;;9.33;;
11197;SDS011;5655;48.744;9.162;2022-11-14T07:09:04;15.37;;;9.37;;
11197;SDS011;5655;48.744;9.162;2022-11-14T07:11:30;13.37;;;8.97;;
11197;SDS011;5655;48.744;9.162;2022-11-14T07:13:59;14.50;;;9.33;;
11197;SDS011;5655;48.744;9.162;2022-11-14T07:16:27;14.27;;;9.17;;
11197;SDS011;5655;48.744;9.162;2022-11-14T07:18:54;15.33;;;9.37;;
11197;SDS011;5655;48.744;9.162;2022-11-14T07:21:20;14.03;;;9.43;;
11197;SDS011;5655;48.744;9.162;2022-11-14T07:23:46;14.35;;;9.63;;
11197;SDS011;5655;48.744;9.162;2022-11-14T07:26:11;13.83;;;9.30;;
11197;SDS011;5655;48.744;9.162;2022-11-14T07:28:41;14.00;;;9.47;;
11197;SDS011;5655;48.744;9.162;2022-11-14T07:31:08;17.00;;;9.47;;
11197;SDS011;5655;48.744;9.162;2022-11-14T07:33:36;15.17;;;9.23;;
11197;SDS011;5655;48.744;9.162;2022-11-14T07:36:02;14.60;;;9.50;;
11197;SDS011;5655;48.744;9.162;2022-11-14T07:38:28;15.25;;;10.07;;
11197;SDS011;5655;48.744;9.162;2022-11-14T07:40:55;16.03;;;9.93;;
11197;SDS011;5655;48.744;9.162;2022-11-14T07:43:22;15.73;;;9.47;;
11197;SDS011;5655;48.744;9.162;2022-11-14T07:45:48;13.87;;;9.23;;
11197;SDS011;5655;48.744;9.162;2022-11-14T07:48:13;15.80;;;10.43;;
11197;SDS011;5655;48.744;9.162;2022-11-14T07:50:40;19.33;;;10.50;;
11197;SDS011;5655;48.744;9.162;2022-11-14T07:53:05;16.93;;;10.33;;
11197;SDS011;5655;48.744;9.162;2022-11-14T07:55:31;16.93;;;10.40;;
11197;SDS011;5655;48.744;9.162;2022-11-14T07:57:59;18.87;;;10.70;;
11197;SDS011;5655;48.744;9.162;2022-11-14T08:00:25;16.83;;;10.33;;
11197;SDS011;5655;48.744;9.162;2022-11-14T08:02:50;16.73;;;10.07;;
11197;SDS011;5655;48.744;9.162;2022-11-14T08:05:16;16.77;;;10.47;;
11197;SDS011;5655;48.744;9.162;2022-11-14T08:07:41;15.57;;;10.38;;
11197;SDS011;5655;48.744;9.162;2022-11-14T08:10:07;13.40;;;9.40;;
11197;SDS011;5655;48.744;9.162;2022-11-14T08:12:35;15.30;;;10.00;;
11197;SDS011;5655;48.744;9.162;2022-11-14T08:15:02;15.75;;;9.73;;
11197;SDS011;5655;48.744;9.162;2022-11-14T08:17:28;14.33;;;8.53;;
11197;SDS011;5655;48.744;9.162;2022-11-14T08:19:53;12.40;;;7.77;;
11197;SDS011;5655;48.744;9.162;2022-11-14T08:22:18;11.95;;;8.48;;
11197;SDS011;5655;48.744;9.162;2022-11-14T08:24:44;13.05;;;8.50;;
11197;SDS011;5655;48.744;9.162;2022-11-14T08:27:09;12.75;;;7.50;;
11197;SDS011;5655;48.744;9.162;2022-11-14T08:29:34;13.15;;;7.40;;
11197;SDS011;5655;48.744;9.162;2022-11-14T08:32:00;11.50;;;7.53;;
11197;SDS011;5655;48.744;9.162;2022-11-14T08:34:25;11.90;;;7.68;;
11197;SDS011;5655;48.744;9.162;2022-11-14T08:36:50;12.15;;;6.97;;
11197;SDS011;5655;48.744;9.162;2022-11-14T08:39:15;11.95;;;7.45;;
11197;SDS011;5655;48.744;9.162;2022-11-14T08:41:41;10.23;;;7.03;;
11197;SDS011;5655;48.744;9.162;2022-11-14T08:44:06;10.55;;;6.63;;
11197;SDS011;5655;48.744;9.162;2022-11-14T08:46:31;14.52;;;7.40;;
11197;SDS011;5655;48.744;9.162;2022-11-14T08:48:57;9.55;;;6.90;;
11197;SDS011;5655;48.744;9.162;2022-11-14T08:51:22;7.32;;;5.13;;
11197;SDS011;5655;48.744;9.162;2022-11-14T08:53:47;10.30;;;4.68;;
11197;SDS011;5655;48.744;9.162;2022-11-14T08:56:13;12.25;;;6.18;;
11197;SDS011;5655;48.744;9.162;2022-11-14T08:58:38;9.48;;;5.72;;
11197;SDS011;5655;48.744;9.162;2022-11-14T09:01:04;8.65;;;4.80;;
11197;SDS011;5655;48.744;9.162;2022-11-14T09:03:31;7.70;;;4.53;;
11197;SDS011;5655;48.744;9.162;2022-11-14T09:05:57;6.55;;;4.32;;
11197;SDS011;5655;48.744;9.162;2022-11-14T09:08:23;7.30;;;4.63;;
11197;SDS011;5655;48.744;9.162;2022-11-14T09:10:48;5.88;;;4.95;;
11197;SDS011;5655;48.744;9.162;2022-11-14T09:13:14;5.97;;;5.00;;
11197;SDS011;5655;48.744;9.162;2022-11-14T09:15:40;7.38;;;6.45;;
11197;SDS011;5655;48.744;9.162;2022-11-14T09:18:07;6.90;;;5.93;;
11197;SDS011;5655;48.744;9.162;2022-11-14T09:20:33;8.20;;;5.53;;
11197;SDS011;5655;48.744;9.162;2022-11-14T09:22:59;8.13;;;4.78;;
11197;SDS011;5655;48.744;9.162;2022-11-14T09:25:25;7.28;;;5.00;;
11197;SDS011;5655;48.744;9.162;2022-11-14T09:27:51;10.68;;;6.38;;
11197;SDS011;5655;48.744;9.162;2022-11-14T09:30:17;6.55;;;5.60;;
11197;SDS011;5655;48.744;9.162;2022-11-14T09:32:43;8.93;;;6.95;;
11197;SDS011;5655;48.744;9.162;2022-11-14T09:35:08;5.35;;;4.22;;
11197;SDS011;5655;48.744;9.162;2022-11-14T09:37:33;5.78;;;3.42;;
11197;SDS011;5655;48.744;9.162;2022-11-14T09:39:59;4.35;;;3.20;;
11197;SDS011;5655;48.744;9.162;2022-11-14T09:45:15;3.63;;;3.15;;
11197;SDS011;5655;48.744;9.162;2022-11-14T09:47:45;5.97;;;3.75;;
11197;SDS011;5655;48.744;9.162;2022-11-14T09:50:24;4.78;;;3.35;;
11197;SDS011;5655;48.744;9.162;2022-11-14T09:52:57;6.28;;;4.10;;
11197;SDS011;5655;48.744;9.162;2022-11-14T09:57:57;5.88;;;4.25;;
11197;SDS011;5655;48.744;9.162;2022-11-14T10:00:26;7.22;;;4.97;;
11197;SDS011;5655;48.744;9.162;2022-11-14T10:05:24;7.55;;;4.72;;
11197;SDS011;5655;48.744;9.162;2022-11-14T10:10:52;7.65;;;5.40;;
11197;SDS011;5655;48.744;9.162;2022-11-14T10:13:35;8.00;;;5.43;;
11197;SDS011;5655;48.744;9.162;2022-11-14T10:26:47;13.15;;;6.95;;
11197;SDS011;5655;48.744;9.162;2022-11-14T10:32:01;7.35;;;4.78;;
11197;SDS011;5655;48.744;9.162;2022-11-14T10:34:41;7.50;;;4.93;;
11197;SDS011;5655;48.744;9.162;2022-11-14T10:37:18;12.75;;;6.22;;
11197;SDS011;5655;48.744;9.162;2022-11-14T10:40:13;12.50;;;6.28;;
11197;SDS011;5655;48.744;9.162;2022-11-14T10:42:43;8.82;;;6.05;;
11197;SDS011;5655;48.744;9.162;2022-11-14T10:47:48;8.85;;;5.18;;
11197;SDS011;5655;48.744;9.162;2022-11-14T10:50:19;7.15;;;5.32;;
11197;SDS011;5655;48.744;9.162;2022-11-14T10:52:47;10.23;;;5.32;;
11197;SDS011;5655;48.744;9.162;2022-11-14T10:55:19;10.63;;;6.72;;
11197;SDS011;5655;48.744;9.162;2022-11-14T10:57:45;9.65;;;5.30;;
11197;SDS011;5655;48.744;9.162;2022-11-14T11:00:11;5.82;;;4.82;;
11197;SDS011;5655;48.744;9.162;2022-11-14T11:02:54;8.93;;;5.50;;
11197;SDS011;5655;48.744;9.162;2022-11-14T11:05:22;6.60;;;5.47;;
11197;SDS011;5655;48.744;9.162;2022-11-14T11:07:50;7.82;;;6.50;;
11197;SDS011;5655;48.744;9.162;2022-11-14T11:10:34;6.20;;;5.00;;
11197;SDS011;5655;48.744;9.162;2022-11-14T11:13:29;5.07;;;4.43;;
11197;SDS011;5655;48.744;9.162;2022-11-14T11:15:57;7.95;;;4.93;;
11197;SDS011;5655;48.744;9.162;2022-11-14T11:18:24;6.40;;;4.60;;
11197;SDS011;5655;48.744;9.162;2022-11-14T11:21:08;4.20;;;3.45;;
11197;SDS011;5655;48.744;9.162;2022-11-14T11:23:35;4.95;;;2.53;;
11197;SDS011;5655;48.744;9.162;2022-11-14T11:26:17;3.90;;;2.45;;
11197;SDS011;5655;48.744;9.162;2022-11-14T11:28:44;5.68;;;2.00;;
11197;SDS011;5655;48.744;9.162;2022-11-14T11:31:26;1.80;;;1.70;;
11197;SDS011;5655;48.744;9.162;2022-11-14T11:33:51;2.13;;;1.48;;
11197;SDS011;5655;48.744;9.162;2022-11-14T11:36:17;3.78;;;1.88;;
11197;SDS011;5655;48.744;9.162;2022-11-14T11:38:44;2.40;;;1.20;;
11197;SDS011;5655;48.744;9.162;2022-11-14T11:44:04;1.67;;;1.42;;
11197;SDS011;5655;48.744;9.162;2022-11-14T11:49:50;1.45;;;1.33;;
11197;SDS011;5655;48.744;9.162;2022-11-14T11:57:47;3.47;;;1.50;;
11197;SDS011;5655;48.744;9.162;2022-11-14T12:00:20;2.92;;;1.42;;
11197;SDS011;5655;48.744;9.162;2022-11-14T12:02:47;4.70;;;1.73;;
11197;SDS011;5655;48.744;9.162;2022-11-14T12:05:40;2.70;;;1.40;;
11197;SDS011;5655;48.744;9.162;2022-11-14T12:08:23;2.58;;;1.45;;
11197;SDS011;5655;48.744;9.162;2022-11-14T12:11:02;2.35;;;1.40;;
11197;SDS011;5655;48.744;9.162;2022-11-14T12:13:40;3.20;;;1.40;;
11197;SDS011;5655;48.744;9.162;2022-11-14T12:21:52;1.90;;;1.60;;
11197;SDS011;5655;48.744;9.162;2022-11-14T12:27:18;2.67;;;1.75;;
11197;SDS011;5655;48.744;9.162;2022-11-14T12:29:54;2.50;;;1.90;;
11197;SDS011;5655;48.744;9.162;2022-11-14T12:37:50;3.35;;;1.98;;
11197;SDS011;5655;48.744;9.162;2022-11-14T12:42:49;2.67;;;1.70;;
11197;SDS011;5655;48.744;9.162;2022-11-14T12:50:40;1.83;;;1.45;;
11197;SDS011;5655;48.744;9.162;2022-11-14T12:53:35;2.17;;;1.55;;
11197;SDS011;5655;48.744;9.162;2022-11-14T12:56:47;2.47;;;1.40;;
11197;SDS011;5655;48.744;9.162;2022-11-14T13:11:58;2.85;;;1.75;;
11197;SDS011;5655;48.744;9.162;2022-11-14T13:15:07;3.03;;;1.38;;
11197;SDS011;5655;48.744;9.162;2022-11-14T13:18:02;3.28;;;1.42;;
11197;SDS011;5655;48.744;9.162;2022-11-14T13:21:00;3.22;;;1.30;;
11197;SDS011;5655;48.744;9.162;2022-11-14T13:33:41;1.92;;;1.35;;
11197;SDS011;5655;48.744;9.162;2022-11-14T13:36:14;4.55;;;1.70;;
11197;SDS011;5655;48.744;9.162;2022-11-14T13:44:55;3.28;;;1.77;;
11197;SDS011;5655;48.744;9.162;2022-11-14T13:47:40;2.85;;;1.40;;
11197;SDS011;5655;48.744;9.162;2022-11-14T13:50:31;2.08;;;1.55;;
11197;SDS011;5655;48.744;9.162;2022-11-14T13:53:09;1.70;;;1.58;;
11197;SDS011;5655;48.744;9.162;2022-11-14T13:58:30;2.30;;;1.42;;
11197;SDS011;5655;48.744;9.162;2022-11-14T14:04:07;2.05;;;1.70;;
11197;SDS011;5655;48.744;9.162;2022-11-14T14:09:31;1.20;;;1.05;;
11197;SDS011;5655;48.744;9.162;2022-11-14T14:14:43;3.85;;;1.70;;
11197;SDS011;5655;48.744;9.162;2022-11-14T14:17:21;2.20;;;1.38;;
11197;SDS011;5655;48.744;9.162;2022-11-14T14:20:02;2.22;;;1.98;;
11197;SDS011;5655;48.744;9.162;2022-11-14T14:25:37;1.80;;;1.40;;
11197;SDS011;5655;48.744;9.162;2022-11-14T14:31:13;1.90;;;1.45;;
11197;SDS011;5655;48.744;9.162;2022-11-14T14:33:45;2.67;;;1.88;;
11197;SDS011;5655;48.744;9.162;2022-11-14T14:38:46;2.42;;;1.75;;
11197;SDS011;5655;48.744;9.162;2022-11-14T14:41:13;3.25;;;2.15;;
11197;SDS011;5655;48.744;9.162;2022-11-14T14:43:42;1.73;;;1.60;;
11197;SDS011;5655;48.744;9.162;2022-11-14T14:46:14;6.25;;;2.05;;
11197;SDS011;5655;48.744;9.162;2022-11-14T14:48:41;3.90;;;1.77;;
11197;SDS011;5655;48.744;9.162;2022-11-14T14:51:11;3.20;;;1.88;;
11197;SDS011;5655;48.744;9.162;2022-11-14T14:53:38;3.55;;;2.08;;
11197;SDS011;5655;48.744;9.162;2022-11-14T14:56:05;3.50;;;1.73;;
11197;SDS011;5655;48.744;9.162;2022-11-14T14:58:41;1.70;;;1.60;;
11197;SDS011;5655;48.744;9.162;2022-11-14T15:01:13;5.10;;;1.70;;
11197;SDS011;5655;48.744;9.162;2022-11-14T15:03:45;3.45;;;1.70;;
11197;SDS011;5655;48.744;9.162;2022-11-14T15:06:22;3.65;;;2.03;;
11197;SDS011;5655;48.744;9.162;2022-11-14T15:09:17;3.38;;;1.80;;
11197;SDS011;5655;48.744;9.162;2022-11-14T15:11:46;4.90;;;1.65;;
11197;SDS011;5655;48.744;9.162;2022-11-14T15:14:16;4.07;;;2.03;;
11197;SDS011;5655;48.744;9.162;2022-11-14T15:16:45;3.92;;;1.83;;
11197;SDS011;5655;48.744;9.162;2022-11-14T15:19:14;3.33;;;2.10;;
11197;SDS011;5655;48.744;9.162;2022-11-14T15:21:42;2.85;;;2.08;;
11197;SDS011;5655;48.744;9.162;2022-11-14T15:26:38;2.97;;;1.77;;
11197;SDS011;5655;48.744;9.162;2022-11-14T15:29:14;2.83;;;2.22;;
11197;SDS011;5655;48.744;9.162;2022-11-14T15:31:43;2.80;;;1.92;;
11197;SDS011;5655;48.744;9.162;2022-11-14T15:34:28;2.28;;;1.90;;
11197;SDS011;5655;48.744;9.162;2022-11-14T15:37:07;5.65;;;2.03;;
11197;SDS011;5655;48.744;9.162;2022-11-14T15:39:33;2.90;;;1.95;;
11197;SDS011;5655;48.744;9.162;2022-11-14T15:42:17;3.95;;;2.10;;
11197;SDS011;5655;48.744;9.162;2022-11-14T15:44:50;4.55;;;2.50;;
11197;SDS011;5655;48.744;9.162;2022-11-14T15:50:00;3.58;;;1.90;;
11197;SDS011;5655;48.744;9.162;2022-11-14T15:52:39;5.43;;;1.98;;
11197;SDS011;5655;48.744;9.162;2022-11-14T15:55:17;5.00;;;2.28;;
11197;SDS011;5655;48.744;9.162;2022-11-14T15:57:44;3.00;;;2.50;;
11197;SDS011;5655;48.744;9.162;2022-11-14T16:00:13;5.07;;;2.67;;
11197;SDS011;5655;48.744;9.162;2022-11-14T16:02:43;3.90;;;2.20;;
11197;SDS011;5655;48.744;9.162;2022-11-14T16:05:15;4.60;;;2.50;;
11197;SDS011;5655;48.744;9.162;2022-11-14T16:07:41;3.47;;;2.28;;
11197;SDS011;5655;48.744;9.162;2022-11-14T16:10:17;3.53;;;2.20;;
11197;SDS011;5655;48.744;9.162;2022-11-14T16:12:43;5.18;;;2.58;;
11197;SDS011;5655;48.744;9.162;2022-11-14T16:15:09;7.75;;;2.65;;
11197;SDS011;5655;48.744;9.162;2022-11-14T16:17:36;4.45;;;2.30;;
11197;SDS011;5655;48.744;9.162;2022-11-14T16:20:04;3.00;;;2.40;;
11197;SDS011;5655;48.744;9.162;2022-11-14T16:22:32;5.90;;;2.58;;
11197;SDS011;5655;48.744;9.162;2022-11-14T16:24:58;6.25;;;2.33;;
11197;SDS011;5655;48.744;9.162;2022-11-14T16:27:24;4.63;;;3.08;;
11197;SDS011;5655;48.744;9.162;2022-11-14T16:29:50;3.33;;;2.38;;
11197;SDS011;5655;48.744;9.162;2022-11-14T16:32:15;4.40;;;2.45;;
11197;SDS011;5655;48.744;9.162;2022-11-14T16:34:40;4.07;;;2.53;;
11197;SDS011;5655;48.744;9.162;2022-11-14T16:37:08;5.13;;;2.50;;
11197;SDS011;5655;48.744;9.162;2022-11-14T16:39:37;4.50;;;2.58;;
11197;SDS011;5655;48.744;9.162;2022-11-14T16:42:02;5.07;;;3.10;;
11197;SDS011;5655;48.744;9.162;2022-11-14T16:44:28;4.25;;;2.60;;
11197;SDS011;5655;48.744;9.162;2022-11-14T16:46:54;4.05;;;3.10;;
11197;SDS011;5655;48.744;9.162;2022-11-14T16:49:19;6.28;;;3.00;;
11197;SDS011;5655;48.744;9.162;2022-11-14T16:51:47;5.85;;;3.60;;
11197;SDS011;5655;48.744;9.162;2022-11-14T16:54:14;10.02;;;3.50;;